Time;durP1;ratioP1;P1;durP2;ratioP2;P2;SDS_P1;SDS_P2;PMS_P1;PMS_P2;Temp;Humidity;BMP_temperature;BMP_pressure;BME280_temperature;BME280_humidity;BME280_pressure;Samples;Min_cycle;Max_cycle;Signal;HPM_P1;HPM_P2
2021/04/20 00:01:30;;;;;;;10.57;4.80;;;;;;;7.91;100.00;96293.19;5003904;28;20034;-65
2021/04/20 00:03:55;;;;;;;7.10;3.42;;;;;;;8.13;100.00;96317.16;5003656;28;20421;-66
2021/04/20 00:06:21;;;;;;;7.07;3.70;;;;;;;8.22;100.00;96312.16;5003530;28;20111;-68
2021/04/20 00:08:47;;;;;;;7.43;3.47;;;;;;;7.65;100.00;96222.31;5018836;28;20018;-68
2021/04/20 00:11:12;;;;;;;7.93;4.50;;;;;;;8.28;100.00;96312.69;5018189;28;20080;-68
2021/04/20 00:13:38;;;;;;;9.50;3.83;;;;;;;7.35;100.00;96160.88;5003888;28;20500;-67
2021/04/20 00:16:03;;;;;;;7.72;6.25;;;;;;;7.74;100.00;96217.31;5003283;28;20069;-65
2021/04/20 00:18:29;;;;;;;5.25;3.90;;;;;;;7.83;100.00;96228.09;5004298;28;20049;-65
2021/04/20 00:20:54;;;;;;;5.75;3.90;;;;;;;8.33;100.00;96301.31;5003695;28;20042;-67
2021/04/20 00:23:20;;;;;;;4.10;2.97;;;;;;;8.20;100.00;96280.63;5018617;28;20041;-67
2021/04/20 00:25:45;;;;;;;5.05;3.20;;;;;;;8.29;100.00;96283.91;5017781;28;20132;-66
2021/04/20 00:28:11;;;;;;;5.82;3.47;;;;;;;8.40;100.00;96301.41;5018698;28;20030;-66
2021/04/20 00:30:37;;;;;;;5.88;4.20;;;;;;;8.38;100.00;96298.22;5003581;28;20041;-66
2021/04/20 00:33:02;;;;;;;13.10;5.75;;;;;;;8.01;100.00;96251.22;5003978;28;20542;-65
2021/04/20 00:35:28;;;;;;;4.50;2.83;;;;;;;8.41;100.00;96303.78;5003460;28;20109;-65
2021/04/20 00:37:53;;;;;;;5.47;2.85;;;;;;;7.42;100.00;96174.75;5004163;28;20465;-65
2021/04/20 00:40:19;;;;;;;7.90;3.83;;;;;;;7.96;100.00;96225.91;5003320;28;20093;-65
2021/04/20 00:42:57;;;;;;;8.20;4.85;;;;;;;7.46;100.00;96142.53;5018443;28;20061;-65
2021/04/20 00:45:25;;;;;;;6.53;4.20;;;;;;;7.56;100.00;96180.47;5003971;28;20394;-65
2021/04/20 00:47:50;;;;;;;7.25;4.13;;;;;;;8.34;100.00;96289.13;5005634;28;20041;-65
2021/04/20 00:50:19;;;;;;;9.35;4.15;;;;;;;8.30;100.00;96296.56;5005042;28;20034;-67
2021/04/20 00:52:44;;;;;;;6.40;3.25;;;;;;;8.35;100.00;96298.97;5006882;28;20026;-67
2021/04/20 00:55:11;;;;;;;4.90;3.38;;;;;;;8.34;100.00;96300.16;5026656;28;20045;-67
2021/04/20 00:57:37;;;;;;;7.35;4.25;;;;;;;8.36;100.00;96300.56;5026891;28;20112;-68
2021/04/20 01:00:11;;;;;;;9.68;6.93;;;;;;;8.29;100.00;96297.72;5026480;28;20640;-68
2021/04/20 01:02:37;;;;;;;8.98;4.45;;;;;;;8.31;100.00;96309.19;5026700;28;20033;-68
2021/04/20 01:05:09;;;;;;;6.63;3.30;;;;;;;7.85;100.00;96250.59;5026439;28;20107;-68
2021/04/20 01:07:35;;;;;;;10.10;5.38;;;;;;;4.38;100.00;95699.28;5025286;28;20091;-68
2021/04/20 01:10:03;;;;;;;40.72;30.30;;;;;;;8.22;100.00;96303.88;5026327;28;20029;-67
2021/04/20 01:12:29;;;;;;;15.68;11.20;;;;;;;8.26;100.00;96307.53;5025960;28;20040;-65
2021/04/20 01:14:55;;;;;;;7.80;4.32;;;;;;;8.30;100.00;96307.59;5026828;28;20033;-65
2021/04/20 01:17:27;;;;;;;7.63;4.55;;;;;;;8.07;100.00;96331.66;5026118;28;20122;-67
2021/04/20 01:19:58;;;;;;;8.63;4.35;;;;;;;8.14;100.00;96287.63;5026448;28;20041;-66
2021/04/20 01:22:28;;;;;;;7.38;4.25;;;;;;;7.61;100.00;96198.63;5025921;28;20044;-65
2021/04/20 01:24:54;;;;;;;8.98;4.45;;;;;;;7.85;100.00;96231.28;5026653;28;20094;-65
2021/04/20 01:27:19;;;;;;;7.95;4.65;;;;;;;7.81;100.00;96240.69;5024021;28;20030;-65
2021/04/20 01:29:45;;;;;;;6.80;4.10;;;;;;;7.91;100.00;96270.34;5026355;28;20631;-65
2021/04/20 01:32:11;;;;;;;5.32;3.65;;;;;;;7.78;100.00;96230.41;5026288;28;20037;-65
2021/04/20 01:34:38;;;;;;;10.80;5.63;;;;;;;8.29;100.00;96306.00;5026220;28;20099;-66
2021/04/20 01:37:04;;;;;;;16.73;9.15;;;;;;;8.25;100.00;96316.19;5025998;28;20463;-66
2021/04/20 01:39:29;;;;;;;11.20;6.18;;;;;;;8.21;100.00;96315.31;5025944;28;20034;-68
2021/04/20 01:41:55;;;;;;;11.55;6.38;;;;;;;8.16;100.00;96312.84;5024007;28;20033;-68
2021/04/20 01:44:21;;;;;;;8.10;4.05;;;;;;;8.20;100.00;96319.22;5025680;28;20025;-67
2021/04/20 01:46:46;;;;;;;129.10;56.38;;;;;;;7.79;100.00;96271.38;5023723;28;20641;-67
2021/04/20 01:49:12;;;;;;;15.18;7.43;;;;;;;8.21;100.00;96309.78;5024547;28;20095;-69
2021/04/20 01:51:38;;;;;;;8.68;5.10;;;;;;;7.31;100.00;96179.31;5025528;28;20040;-68
2021/04/20 01:54:04;;;;;;;11.07;5.28;;;;;;;8.20;100.00;96320.03;5015073;28;20026;-69
2021/04/20 01:56:31;;;;;;;37.42;13.70;;;;;;;7.07;100.00;96140.34;5020174;28;20060;-69
2021/04/20 01:58:59;;;;;;;25.95;10.90;;;;;;;8.12;100.00;96315.59;5005614;28;20037;-67
2021/04/20 02:01:27;;;;;;;22.73;12.50;;;;;;;8.06;100.00;96308.00;5003947;28;20117;-69
2021/04/20 02:03:53;;;;;;;42.13;19.92;;;;;;;7.99;100.00;96310.66;5006047;28;20049;-67
2021/04/20 02:06:22;;;;;;;39.35;22.70;;;;;;;7.60;100.00;96258.47;5004189;28;20076;-67
2021/04/20 02:08:48;;;;;;;30.73;17.65;;;;;;;7.50;100.00;96241.78;5005876;28;20559;-68
2021/04/20 02:11:17;;;;;;;17.58;10.18;;;;;;;7.90;100.00;96312.88;5005278;28;20034;-69
2021/04/20 02:13:43;;;;;;;20.38;13.13;;;;;;;7.92;100.00;96307.78;5004008;28;20149;-68
2021/04/20 02:16:09;;;;;;;6.38;4.38;;;;;;;7.73;100.00;96290.19;5005397;28;20116;-67
2021/04/20 02:18:39;;;;;;;8.88;5.45;;;;;;;7.82;100.00;96330.47;5005849;28;20038;-68
2021/04/20 02:21:05;;;;;;;9.13;5.13;;;;;;;7.59;100.00;96267.09;5005177;28;20033;-68
2021/04/20 02:23:31;;;;;;;14.75;8.25;;;;;;;7.26;100.00;96220.94;5005682;28;20034;-68
2021/04/20 02:26:03;;;;;;;9.55;5.00;;;;;;;7.94;100.00;96319.22;5004894;28;20611;-67
2021/04/20 02:28:33;;;;;;;5.75;3.70;;;;;;;7.94;100.00;96321.97;5005411;28;20128;-68
2021/04/20 02:31:04;;;;;;;3.92;2.67;;;;;;;7.94;100.00;96321.97;5019354;28;20041;-68
2021/04/20 02:33:30;;;;;;;6.28;3.00;;;;;;;7.95;100.00;96315.31;5005374;28;20048;-67
2021/04/20 02:35:57;;;;;;;10.85;4.85;;;;;;;7.74;100.00;96286.25;4996594;28;20054;-68
2021/04/20 02:38:24;;;;;;;7.43;3.75;;;;;;;8.00;100.00;96326.03;5019972;28;20044;-67
2021/04/20 02:40:54;;;;;;;9.40;4.72;;;;;;;8.04;100.00;96332.38;5019587;28;20037;-68
2021/04/20 02:43:20;;;;;;;7.60;5.13;;;;;;;7.63;100.00;96285.28;5004800;28;20478;-68
2021/04/20 02:45:48;;;;;;;6.50;3.67;;;;;;;8.01;100.00;96322.09;5004326;28;20068;-67
2021/04/20 02:48:13;;;;;;;5.95;3.85;;;;;;;5.31;100.00;95894.59;5005401;28;20033;-68
2021/04/20 02:50:39;;;;;;;7.35;4.18;;;;;;;8.05;100.00;96328.47;5004538;28;20045;-68
2021/04/20 02:53:05;;;;;;;6.53;4.50;;;;;;;7.50;100.00;96259.13;5021759;28;20044;-68
2021/04/20 02:55:31;;;;;;;23.92;12.60;;;;;;;7.49;100.00;96263.00;5024021;28;20040;-68
2021/04/20 02:57:58;;;;;;;27.88;14.38;;;;;;;7.97;100.00;96332.28;5022983;28;20124;-68
2021/04/20 03:00:25;;;;;;;23.98;14.90;;;;;;;7.95;100.00;96343.66;5024050;28;20044;-69
2021/04/20 03:03:00;;;;;;;45.55;20.33;;;;;;;7.20;100.00;96225.16;5023197;28;20241;-66
2021/04/20 03:05:27;;;;;;;22.05;11.50;;;;;;;7.78;100.00;96324.13;5022646;28;20076;-66
2021/04/20 03:07:53;;;;;;;26.08;14.00;;;;;;;7.51;100.00;96302.03;5023306;28;20493;-67
2021/04/20 03:10:20;;;;;;;18.30;9.85;;;;;;;7.84;100.00;96339.19;5023291;28;20053;-67
2021/04/20 03:12:47;;;;;;;18.23;8.65;;;;;;;7.98;100.00;96344.91;5022922;28;20416;-67
2021/04/20 03:15:15;;;;;;;11.85;6.65;;;;;;;7.79;100.00;96333.97;5022332;28;20048;-68
2021/04/20 03:17:43;;;;;;;11.77;8.27;;;;;;;7.92;100.00;96346.41;5024219;28;20098;-67
2021/04/20 03:20:10;;;;;;;11.02;7.38;;;;;;;7.52;100.00;96300.84;5023720;28;20033;-67
2021/04/20 03:22:38;;;;;;;56.25;28.15;;;;;;;7.72;100.00;96332.69;5024401;28;20037;-68
2021/04/20 03:25:11;;;;;;;32.28;15.63;;;;;;;7.51;100.00;96315.81;5024303;28;20496;-67
2021/04/20 03:27:45;;;;;;;23.38;13.68;;;;;;;7.85;100.00;96357.28;5023944;28;20038;-69
2021/04/20 03:30:13;;;;;;;20.90;13.27;;;;;;;7.90;100.00;96354.22;5021929;28;20507;-68
2021/04/20 03:32:43;;;;;;;29.35;16.95;;;;;;;7.89;100.00;96358.16;5022547;28;20021;-68
2021/04/20 03:35:17;;;;;;;28.02;16.20;;;;;;;7.53;100.00;96291.44;5022117;28;20041;-68
2021/04/20 03:38:01;;;;;;;14.00;9.57;;;;;;;7.94;100.00;96368.84;5024007;28;20072;-68
2021/04/20 03:40:28;;;;;;;22.02;10.65;;;;;;;7.90;100.00;96348.72;5023361;28;20065;-68
2021/04/20 03:42:56;;;;;;;18.55;10.85;;;;;;;8.01;100.00;96372.56;5024066;28;20037;-68
2021/04/20 03:45:26;;;;;;;15.90;9.23;;;;;;;7.61;100.00;96309.69;5021775;28;20053;-68
2021/04/20 03:47:57;;;;;;;20.05;13.07;;;;;;;8.11;100.00;96377.41;5023756;28;20094;-66
2021/04/20 03:50:30;;;;;;;11.02;8.60;;;;;;;7.73;100.00;96328.75;5021696;28;20416;-67
2021/04/20 03:53:06;;;;;;;13.55;7.90;;;;;;;7.41;100.00;96299.88;5022910;28;20040;-67
2021/04/20 03:55:33;;;;;;;11.45;7.80;;;;;;;8.05;100.00;96394.63;5018216;28;20065;-67
2021/04/20 03:58:00;;;;;;;14.95;8.50;;;;;;;7.77;100.00;96336.28;5003779;28;20490;-67
2021/04/20 04:00:26;;;;;;;12.02;8.73;;;;;;;8.15;100.00;96391.28;5003414;28;20030;-67
2021/04/20 04:02:55;;;;;;;12.75;8.68;;;;;;;8.21;100.00;96392.53;5004125;28;20064;-66
2021/04/20 04:05:25;;;;;;;13.77;8.70;;;;;;;8.24;100.00;96392.63;5003728;28;20048;-67
2021/04/20 04:07:53;;;;;;;19.85;13.13;;;;;;;7.80;100.00;96327.28;5003810;28;20033;-69
2021/04/20 04:10:21;;;;;;;27.83;15.60;;;;;;;8.33;100.00;96411.69;5001768;28;20099;-66
2021/04/20 04:12:51;;;;;;;29.30;16.17;;;;;;;8.40;99.94;96401.56;5002191;28;20030;-68
2021/04/20 04:15:18;;;;;;;33.58;20.15;;;;;;;8.50;99.19;96405.63;5001662;28;20180;-68
2021/04/20 04:17:46;;;;;;;45.50;28.55;;;;;;;8.54;97.52;96406.47;5003441;28;20041;-68
2021/04/20 04:20:13;;;;;;;35.30;24.35;;;;;;;8.58;98.16;96407.31;5002941;28;20401;-68
2021/04/20 04:22:48;;;;;;;31.00;21.02;;;;;;;8.04;99.08;96337.91;5022928;28;20073;-68
2021/04/20 04:25:13;;;;;;;35.25;24.65;;;;;;;8.17;98.50;96353.09;5007656;28;20038;-68
2021/04/20 04:27:43;;;;;;;42.83;29.60;;;;;;;7.74;97.90;96268.94;5007178;28;20068;-68
2021/04/20 04:30:10;;;;;;;39.15;26.88;;;;;;;8.73;96.69;96409.09;5005806;28;20041;-68
2021/04/20 04:32:39;;;;;;;12.25;9.13;;;;;;;8.62;96.86;96410.91;5007240;28;20034;-69
2021/04/20 04:35:08;;;;;;;19.25;11.88;;;;;;;8.35;97.52;96370.72;5021996;28;20121;-69
2021/04/20 04:37:35;;;;;;;28.55;18.33;;;;;;;8.17;97.47;96325.50;5007404;28;20036;-68
2021/04/20 04:40:07;;;;;;;21.98;15.27;;;;;;;8.53;95.87;96380.84;5007675;28;20093;-69
2021/04/20 04:42:33;;;;;;;22.77;14.23;;;;;;;8.83;96.54;96416.75;5007499;28;20505;-69
2021/04/20 04:45:02;;;;;;;30.13;18.63;;;;;;;8.74;97.36;96424.53;5007053;28;20138;-68
2021/04/20 04:47:28;;;;;;;22.27;15.43;;;;;;;8.80;95.76;96425.78;5006823;28;20046;-69
2021/04/20 04:49:59;;;;;;;22.73;13.77;;;;;;;8.29;94.72;96333.56;5007244;28;20508;-69
2021/04/20 04:52:24;;;;;;;14.63;8.30;;;;;;;8.21;93.88;96309.78;5006617;28;20501;-67
2021/04/20 04:54:50;;;;;;;24.63;13.45;;;;;;;8.70;94.41;96398.81;5022628;28;20060;-68
2021/04/20 04:57:16;;;;;;;17.63;12.25;;;;;;;8.59;94.45;96395.09;5026817;28;20033;-68
2021/04/20 04:59:44;;;;;;;23.50;16.30;;;;;;;8.78;94.45;96422.59;5025424;28;20405;-67
2021/04/20 05:02:11;;;;;;;25.75;17.48;;;;;;;8.90;95.47;96422.34;5024748;28;20041;-68
2021/04/20 05:04:37;;;;;;;14.02;7.88;;;;;;;9.01;94.09;96420.53;5026830;28;20140;-69
2021/04/20 05:07:02;;;;;;;14.15;9.20;;;;;;;9.10;94.30;96419.06;5025724;28;20108;-68
2021/04/20 05:09:28;;;;;;;8.93;5.97;;;;;;;8.71;92.40;96345.22;5026646;28;20030;-70
2021/04/20 05:11:53;;;;;;;9.30;6.63;;;;;;;9.16;91.85;96405.72;5024231;28;20025;-69
2021/04/20 05:14:21;;;;;;;10.57;7.85;;;;;;;8.36;89.75;96234.34;5026384;28;20662;-69
2021/04/20 05:16:51;;;;;;;12.73;8.43;;;;;;;9.85;89.58;96427.00;5024557;28;20029;-69
2021/04/20 05:19:34;;;;;;;12.43;8.55;;;;;;;8.93;88.75;96275.25;5025271;28;20041;-69
2021/04/20 05:22:00;;;;;;;7.63;4.97;;;;;;;9.38;86.96;96341.22;5025437;28;20030;-69
2021/04/20 05:24:27;;;;;;;7.20;5.03;;;;;;;9.54;87.78;96366.66;5024733;28;20064;-70
2021/04/20 05:26:52;;;;;;;5.72;3.35;;;;;;;9.74;84.40;96387.41;5026023;28;20136;-69
2021/04/20 05:29:19;;;;;;;4.45;3.60;;;;;;;10.30;84.28;96426.69;5026217;28;20540;-68
2021/04/20 05:31:45;;;;;;;5.43;3.60;;;;;;;10.38;82.48;96433.88;5023145;28;20030;-69
2021/04/20 05:34:11;;;;;;;3.05;2.50;;;;;;;10.39;81.46;96429.91;5024849;28;20033;-69
2021/04/20 05:36:38;;;;;;;3.30;2.28;;;;;;;10.40;81.60;96442.56;5024093;28;20033;-69
2021/04/20 05:39:07;;;;;;;3.97;3.13;;;;;;;10.53;81.99;96437.50;5024369;28;20064;-70
2021/04/20 05:41:34;;;;;;;4.75;3.00;;;;;;;10.67;78.17;96451.44;5025630;28;20036;-70
2021/04/20 05:44:03;;;;;;;7.60;4.40;;;;;;;10.01;78.63;96308.59;5037160;28;20033;-66
2021/04/20 05:46:29;;;;;;;3.38;2.83;;;;;;;10.14;76.91;96340.34;5023998;28;20061;-69
2021/04/20 05:48:56;;;;;;;4.65;3.42;;;;;;;11.20;75.99;96433.19;5024099;28;20065;-67
2021/04/20 05:51:23;;;;;;;9.02;5.70;;;;;;;10.55;75.09;96339.03;5025137;28;20049;-66
2021/04/20 05:53:51;;;;;;;3.92;2.70;;;;;;;11.24;74.92;96416.56;5023900;28;20037;-61
2021/04/20 05:56:18;;;;;;;8.73;4.53;;;;;;;11.33;71.84;96392.03;5024248;28;20033;-62
2021/04/20 05:58:45;;;;;;;5.20;3.30;;;;;;;11.32;69.74;96446.69;5024878;28;20037;-64
2021/04/20 06:01:11;;;;;;;2.35;2.03;;;;;;;10.56;70.55;96326.78;5024828;28;20037;-61
2021/04/20 06:03:39;;;;;;;1.60;1.50;;;;;;;10.52;67.27;96300.25;5024377;28;20030;-67
2021/04/20 06:06:07;;;;;;;3.50;2.45;;;;;;;11.55;68.47;96457.47;5024624;28;20037;-67
2021/04/20 06:08:34;;;;;;;2.90;1.95;;;;;;;10.40;66.02;96264.59;5024078;28;20030;-68
2021/04/20 06:11:02;;;;;;;8.38;6.68;;;;;;;10.46;67.82;96302.56;5022135;28;20038;-72
2021/04/20 06:13:27;;;;;;;1.67;1.52;;;;;;;10.67;64.65;96369.16;5024219;28;20420;-71
2021/04/20 06:15:54;;;;;;;9.13;4.55;;;;;;;11.39;69.29;96459.78;5022816;28;20037;-68
2021/04/20 06:18:20;;;;;;;4.22;2.05;;;;;;;10.36;69.44;96252.69;5025106;28;20021;-68
2021/04/20 06:20:47;;;;;;;12.77;5.80;;;;;;;10.43;68.05;96311.66;5024095;28;20048;-72
2021/04/20 06:23:13;;;;;;;2.65;2.30;;;;;;;11.44;69.42;96423.38;5024648;28;20705;-73
2021/04/20 06:25:39;;;;;;;5.20;3.38;;;;;;;11.69;68.98;96435.34;5023641;28;20059;-62
2021/04/20 06:28:05;;;;;;;5.68;3.05;;;;;;;11.53;71.27;96437.66;5024570;28;20064;-67
2021/04/20 06:30:30;;;;;;;6.95;4.30;;;;;;;12.26;65.85;96453.72;5023611;28;20560;-68
2021/04/20 06:32:56;;;;;;;6.43;3.65;;;;;;;12.61;65.27;96459.28;5036300;28;20634;-70
2021/04/20 06:35:22;;;;;;;5.68;1.92;;;;;;;10.75;66.75;96252.88;5024164;28;20041;-71
2021/04/20 06:37:50;;;;;;;3.42;2.60;;;;;;;11.28;65.74;96293.41;5015071;28;20045;-67
2021/04/20 06:40:29;;;;;;;4.43;3.35;;;;;;;11.58;63.15;96312.47;5014774;28;20394;-67
2021/04/20 06:43:19;;;;;;;3.40;3.10;;;;;;;9.90;61.12;96042.19;5017074;28;20511;-64
2021/04/20 06:45:49;;;;;;;3.03;2.75;;;;;;;11.14;63.04;96270.41;5004154;28;20520;-63
2021/04/20 06:48:36;;;;;;;4.20;3.10;;;;;;;12.45;60.94;96470.00;5019537;28;20045;-65
2021/04/20 06:51:06;;;;;;;3.50;3.20;;;;;;;11.79;62.03;96329.16;5025166;28;20981;-65
2021/04/20 06:53:38;;;;;;;3.05;2.80;;;;;;;12.09;59.51;96332.34;5015441;28;20050;-70
2021/04/20 06:56:17;;;;;;;4.03;3.15;;;;;;;13.25;59.58;96466.34;5021865;28;20863;-71
2021/04/20 06:59:01;;;;;;;3.20;2.90;;;;;;;13.72;57.26;96489.25;5023900;28;20496;-72
2021/04/20 07:01:35;;;;;;;3.33;3.03;;;;;;;13.61;55.33;96401.03;5037527;28;20436;-63
2021/04/20 07:04:11;;;;;;;3.72;3.42;;;;;;;14.48;55.15;96476.88;5023811;28;20053;-67
2021/04/20 07:06:44;;;;;;;4.25;3.72;;;;;;;14.28;55.16;96447.19;5023404;28;20033;-67
2021/04/20 07:09:15;;;;;;;4.13;3.80;;;;;;;13.36;55.78;96375.31;5021989;28;20310;-71
2021/04/20 07:11:47;;;;;;;4.32;3.92;;;;;;;13.55;55.41;96418.53;5021397;28;20033;-64
2021/04/20 07:14:24;;;;;;;5.20;4.25;;;;;;;14.02;55.66;96465.22;5022469;28;20138;-67
2021/04/20 07:17:19;;;;;;;5.25;4.35;;;;;;;14.37;54.69;96508.84;5002873;28;20029;-62
2021/04/20 07:19:53;;;;;;;6.80;4.80;;;;;;;14.65;54.17;96480.75;5011256;28;20053;-63
2021/04/20 07:22:50;;;;;;;8.20;4.90;;;;;;;14.65;53.01;96480.75;5015853;28;20033;-67
2021/04/20 07:25:28;;;;;;;5.15;4.65;;;;;;;14.82;52.24;96479.81;5021027;28;20156;-70
2021/04/20 07:28:10;;;;;;;5.72;5.15;;;;;;;13.87;57.52;96485.19;5012216;28;20045;-65
2021/04/20 07:30:43;;;;;;;5.07;4.55;;;;;;;13.35;58.26;96501.69;5016821;28;20033;-66
2021/04/20 07:33:09;;;;;;;8.32;5.53;;;;;;;13.80;55.70;96513.06;5019044;28;20041;-66
2021/04/20 07:35:58;;;;;;;5.55;4.97;;;;;;;13.99;53.84;96515.38;5015659;28;20096;-72
2021/04/20 07:38:55;;;;;;;7.32;5.50;;;;;;;14.01;54.93;96512.97;5005583;28;20034;-67
2021/04/20 07:41:34;;;;;;;7.22;5.63;;;;;;;13.52;53.22;96436.84;5008673;28;20046;-71
2021/04/20 07:44:07;;;;;;;6.57;5.97;;;;;;;11.77;52.59;96149.22;5006777;28;20476;-70
2021/04/20 07:46:41;;;;;;;7.32;6.45;;;;;;;14.39;53.57;96511.97;5018749;28;20219;-69
2021/04/20 07:49:19;;;;;;;8.63;7.38;;;;;;;14.09;52.70;96497.81;5021624;28;20060;-66
2021/04/20 07:51:49;;;;;;;6.65;6.00;;;;;;;12.48;54.62;96305.31;4976719;28;20810;-64
2021/04/20 07:54:25;;;;;;;6.82;6.13;;;;;;;10.56;52.50;96024.94;4957544;28;20297;-71
2021/04/20 07:57:25;;;;;;;8.27;6.70;;;;;;;13.88;53.31;96486.78;4956810;28;20500;-69
2021/04/20 08:00:07;;;;;;;4.88;4.43;;;;;;;13.91;54.50;96525.72;4959192;28;20041;-65
2021/04/20 08:02:52;;;;;;;3.47;3.20;;;;;;;13.99;57.01;96537.66;4952073;28;20561;-71
2021/04/20 08:05:29;;;;;;;3.30;2.80;;;;;;;13.85;56.53;96537.72;4961195;28;20422;-64
2021/04/20 08:07:54;;;;;;;4.35;3.85;;;;;;;13.68;55.54;96528.22;4970155;28;20360;-67
2021/04/20 08:10:24;;;;;;;5.07;4.57;;;;;;;14.22;53.31;96524.81;4955278;28;20096;-66
2021/04/20 08:13:16;;;;;;;3.22;2.92;;;;;;;13.42;53.01;96386.81;4947813;28;20044;-66
2021/04/20 08:15:55;;;;;;;4.20;3.75;;;;;;;14.25;53.65;96540.72;4953221;28;20102;-67
2021/04/20 08:18:35;;;;;;;6.38;4.45;;;;;;;12.02;52.30;96276.81;4944934;28;20092;-66
2021/04/20 08:21:03;;;;;;;5.32;3.58;;;;;;;14.46;54.36;96559.31;4957969;28;20500;-67
2021/04/20 08:23:31;;;;;;;5.22;4.40;;;;;;;14.32;53.07;96546.25;4960941;28;20249;-67
2021/04/20 08:26:10;;;;;;;8.02;7.22;;;;;;;14.47;51.55;96542.19;4949869;28;20522;-67
2021/04/20 08:28:51;;;;;;;6.20;5.20;;;;;;;14.24;51.87;96546.69;4973798;28;20148;-66
2021/04/20 08:31:16;;;;;;;8.02;6.38;;;;;;;14.31;53.09;96543.88;4950747;28;20772;-66
2021/04/20 08:33:48;;;;;;;6.93;5.47;;;;;;;14.11;52.02;96514.91;4961693;28;20550;-66
2021/04/20 08:36:41;;;;;;;8.13;6.30;;;;;;;14.24;52.64;96543.91;4788837;28;5000322;-66
2021/04/20 08:39:20;;;;;;;9.18;6.90;;;;;;;14.43;51.30;96551.78;4957512;28;20022;-66
2021/04/20 08:41:57;;;;;;;12.00;8.60;;;;;;;13.95;51.99;96497.88;4965228;28;20995;-69
2021/04/20 08:44:36;;;;;;;13.30;10.55;;;;;;;14.58;52.28;96547.69;4962607;28;20409;-65
2021/04/20 08:47:12;;;;;;;11.32;9.20;;;;;;;15.13;49.48;96537.31;4971585;28;20550;-66
2021/04/20 08:49:46;;;;;;;11.02;8.32;;;;;;;11.30;48.38;95818.97;4952565;28;20036;-63
2021/04/20 08:52:49;;;;;;;8.10;6.90;;;;;;;16.22;45.83;96538.91;4951910;28;20124;-63
2021/04/20 08:55:38;;;;;;;9.38;8.38;;;;;;;15.57;47.66;96424.84;4960539;28;20525;-64
2021/04/20 08:58:34;;;;;;;7.25;5.90;;;;;;;16.52;44.43;96536.94;4948629;28;20516;-70
2021/04/20 09:01:38;;;;;;;9.98;7.35;;;;;;;16.48;46.66;96536.22;4949576;28;20504;-62
2021/04/20 09:04:40;;;;;;;8.88;7.40;;;;;;;16.31;46.11;96539.22;4958353;28;20602;-63
2021/04/20 09:07:27;;;;;;;10.43;6.93;;;;;;;15.79;47.82;96459.69;4957096;28;20532;-69
2021/04/20 09:09:55;;;;;;;6.82;6.10;;;;;;;15.76;45.70;96438.94;4962148;28;20034;-68
2021/04/20 09:12:22;;;;;;;6.80;6.13;;;;;;;16.47;46.32;96539.44;4961123;28;20623;-67
2021/04/20 09:14:49;;;;;;;9.73;7.15;;;;;;;16.15;47.78;96545.41;4949699;28;20124;-66
2021/04/20 09:17:20;;;;;;;8.55;6.35;;;;;;;15.84;48.63;96496.28;4954094;28;20501;-66
2021/04/20 09:19:52;;;;;;;12.10;8.27;;;;;;;16.31;48.92;96481.28;4957983;28;20496;-67
2021/04/20 09:22:48;;;;;;;13.10;9.27;;;;;;;17.34;46.73;96498.00;4950190;28;20332;-70
2021/04/20 09:25:23;;;;;;;11.57;8.45;;;;;;;17.44;44.68;96535.44;4976669;28;20582;-67
2021/04/20 09:27:58;;;;;;;11.00;8.90;;;;;;;15.82;44.77;96359.06;4978069;28;20421;-63
2021/04/20 09:30:27;;;;;;;10.05;8.45;;;;;;;15.39;45.68;96401.94;4961428;28;20393;-68
2021/04/20 09:32:59;;;;;;;12.15;7.90;;;;;;;16.17;46.37;96559.72;4964305;28;20040;-64
2021/04/20 09:35:27;;;;;;;13.98;9.48;;;;;;;15.51;47.58;96477.53;4964877;28;20048;-68
2021/04/20 09:37:53;;;;;;;16.73;11.40;;;;;;;16.04;48.69;96536.38;4965210;28;20285;-64
2021/04/20 09:40:22;;;;;;;10.93;8.73;;;;;;;13.46;47.37;96165.81;4962762;28;20037;-65
2021/04/20 09:42:56;;;;;;;11.73;9.07;;;;;;;15.84;48.23;96540.97;4963501;28;20040;-68
2021/04/20 09:45:32;;;;;;;12.55;10.40;;;;;;;15.46;47.45;96458.47;4953371;28;20058;-67
2021/04/20 09:48:04;;;;;;;11.18;9.40;;;;;;;16.80;47.02;96526.53;4963224;28;20057;-67
2021/04/20 09:51:04;;;;;;;14.88;10.77;;;;;;;17.39;46.65;96535.94;4965688;28;20033;-70
2021/04/20 09:53:44;;;;;;;12.30;8.75;;;;;;;17.25;45.29;96510.97;4942498;28;20080;-67
2021/04/20 09:56:22;;;;;;;9.60;8.65;;;;;;;17.46;43.90;96533.03;4961769;28;20430;-66
2021/04/20 09:58:50;;;;;;;7.82;7.03;;;;;;;17.05;44.19;96512.94;4964914;28;20029;-68
2021/04/20 10:01:34;;;;;;;9.10;8.20;;;;;;;15.03;42.23;96256.50;4964225;28;20416;-64
2021/04/20 10:04:10;;;;;;;9.88;8.85;;;;;;;17.36;43.42;96545.19;4958999;28;20091;-72
2021/04/20 10:06:54;;;;;;;9.13;8.23;;;;;;;15.22;44.24;96180.50;4966421;28;20572;-76
2021/04/20 10:09:31;;;;;;;10.80;8.73;;;;;;;16.25;42.87;96449.44;4965448;28;20038;-63
2021/04/20 10:12:31;;;;;;;9.98;8.77;;;;;;;16.59;40.55;96536.03;4959665;28;20072;-67
2021/04/20 10:15:08;;;;;;;10.98;8.73;;;;;;;16.01;42.52;96489.69;4972879;28;20041;-65
2021/04/20 10:17:44;;;;;;;11.52;9.02;;;;;;;15.85;42.24;96497.09;4962142;28;20044;-64
2021/04/20 10:20:20;;;;;;;9.77;8.80;;;;;;;15.78;43.22;96541.84;4963083;28;20972;-64
2021/04/20 10:23:16;;;;;;;9.57;8.27;;;;;;;15.63;42.96;96540.44;4964110;28;20553;-76
2021/04/20 10:26:07;;;;;;;9.27;8.38;;;;;;;14.70;43.00;96433.69;4960042;28;20037;-69
2021/04/20 10:29:10;;;;;;;10.30;9.25;;;;;;;15.36;43.90;96543.09;4960814;28;20180;-71
2021/04/20 10:31:44;;;;;;;13.47;10.50;;;;;;;15.41;44.74;96545.47;4964610;28;20794;-66
2021/04/20 10:34:14;;;;;;;11.45;9.23;;;;;;;15.44;43.67;96561.38;4960698;28;20480;-68
2021/04/20 10:36:41;;;;;;;10.77;8.75;;;;;;;15.21;44.10;96552.78;4964360;28;20715;-66
2021/04/20 10:39:09;;;;;;;10.70;9.60;;;;;;;14.95;44.54;96500.41;4961581;28;20651;-67
2021/04/20 10:41:38;;;;;;;10.90;8.25;;;;;;;12.47;42.91;96073.16;4973132;28;20059;-68
2021/04/20 10:44:10;;;;;;;9.63;8.63;;;;;;;15.28;44.93;96551.91;4973732;28;20315;-64
2021/04/20 10:46:37;;;;;;;9.23;8.32;;;;;;;15.41;44.50;96567.00;4964391;28;20045;-64
2021/04/20 10:49:04;;;;;;;9.07;8.13;;;;;;;14.92;43.48;96523.56;4961042;28;20910;-69
2021/04/20 10:51:35;;;;;;;10.40;8.55;;;;;;;14.03;43.96;96466.00;4949844;28;20060;-71
2021/04/20 10:54:02;;;;;;;8.27;7.22;;;;;;;12.02;51.93;96210.22;4968075;28;20044;-65
2021/04/20 10:56:31;;;;;;;9.32;7.05;;;;;;;11.79;52.92;96268.91;4965118;28;20042;-66
2021/04/20 10:59:00;;;;;;;9.00;7.57;;;;;;;14.42;52.19;96578.84;4966841;28;20033;-68
2021/04/20 11:01:29;;;;;;;8.35;7.32;;;;;;;13.97;51.31;96513.00;4972427;28;20148;-62
2021/04/20 11:04:00;;;;;;;8.35;7.35;;;;;;;10.61;51.92;96115.94;4955247;28;20063;-66
2021/04/20 11:07:02;;;;;;;18.75;12.25;;;;;;;13.79;52.91;96578.28;4961783;28;21151;-69
2021/04/20 11:09:32;;;;;;;13.93;9.15;;;;;;;11.38;53.36;96234.38;4964079;28;20056;-65
2021/04/20 11:11:58;;;;;;;12.73;9.65;;;;;;;12.82;52.76;96356.41;4967229;28;20037;-64
2021/04/20 11:14:38;;;;;;;13.00;10.77;;;;;;;14.37;53.29;96578.50;4969814;28;20586;-64
2021/04/20 11:17:07;;;;;;;13.45;10.77;;;;;;;14.10;53.50;96549.53;4966602;28;20061;-64
2021/04/20 11:19:41;;;;;;;11.90;10.38;;;;;;;13.80;53.49;96474.88;4964238;28;20061;-67
2021/04/20 11:22:10;;;;;;;19.02;16.63;;;;;;;14.44;53.39;96582.03;4962845;28;20136;-67
2021/04/20 11:24:40;;;;;;;21.83;19.52;;;;;;;14.01;52.64;96536.03;4960140;28;20082;-68
2021/04/20 11:27:10;;;;;;;25.77;19.50;;;;;;;14.44;52.06;96575.66;4953172;28;20184;-62
2021/04/20 11:29:48;;;;;;;21.63;13.52;;;;;;;13.89;54.71;96538.47;4961737;28;20017;-67
2021/04/20 11:32:23;;;;;;;14.73;12.18;;;;;;;13.88;55.82;96539.69;4957910;28;20041;-63
2021/04/20 11:34:53;;;;;;;15.90;13.52;;;;;;;14.33;54.41;96577.69;4960468;28;20527;-66
2021/04/20 11:37:22;;;;;;;13.70;11.98;;;;;;;11.36;52.87;96055.75;4961657;28;20463;-64
2021/04/20 11:39:55;;;;;;;11.52;9.93;;;;;;;14.67;52.22;96561.97;4960424;28;20025;-65
2021/04/20 11:42:28;;;;;;;;;;;;;;;15.25;51.38;96573.09;4960356;28;20463;-66
2021/04/20 11:45:03;;;;;;;11.95;10.43;;;;;;;15.57;50.34;96576.38;4959461;28;20525;-68
2021/04/20 11:47:29;;;;;;;11.85;10.65;;;;;;;15.55;49.12;96570.44;4962004;28;20246;-71
2021/04/20 11:50:11;;;;;;;17.58;13.80;;;;;;;15.52;49.15;96562.91;4966074;28;20033;-68